Time;durP1;ratioP1;P1;durP2;ratioP2;P2;SDS_P1;SDS_P2;PMS_P1;PMS_P2;Temp;Humidity;BMP_temperature;BMP_pressure;BME280_temperature;BME280_humidity;BME280_pressure;Samples;Min_cycle;Max_cycle;Signal;HPM_P1;HPM_P2
2023/12/09 00:00:04;;;;;;;7.32;3.55;;;;;;;12.42;44.89;96108.09;5080448;28;20019;-26
2023/12/09 00:02:29;;;;;;;7.68;3.50;;;;;;;12.56;44.87;96108.31;5079410;28;20043;-26
2023/12/09 00:04:55;;;;;;;6.70;3.25;;;;;;;12.43;45.32;96109.63;5081314;28;20111;-27
2023/12/09 00:07:21;;;;;;;7.40;3.75;;;;;;;12.53;44.90;96109.22;5077393;28;20042;-26
2023/12/09 00:09:46;;;;;;;9.80;3.63;;;;;;;12.56;44.69;96108.31;5082995;28;20445;-26
2023/12/09 00:12:12;;;;;;;16.00;7.32;;;;;;;12.42;44.94;96108.84;5076069;28;20047;-26
2023/12/09 00:14:37;;;;;;;12.02;5.22;;;;;;;12.43;44.80;96110.38;5084091;28;20016;-26
2023/12/09 00:17:03;;;;;;;14.23;5.70;;;;;;;12.40;44.99;96105.81;5074834;28;20028;-26
2023/12/09 00:19:29;;;;;;;13.25;5.40;;;;;;;12.43;44.92;96115.81;5061065;28;20531;-26
2023/12/09 00:21:54;;;;;;;14.02;5.28;;;;;;;12.58;44.37;96116.03;5087202;28;20028;-26
2023/12/09 00:24:20;;;;;;;12.43;4.65;;;;;;;12.39;44.96;96106.25;5085918;28;20025;-26
2023/12/09 00:26:45;;;;;;;15.05;5.38;;;;;;;12.59;44.32;96110.16;5081667;28;20024;-26
2023/12/09 00:29:11;;;;;;;46.58;14.35;;;;;;;12.65;44.44;96115.00;5084464;28;20031;-26
2023/12/09 00:31:36;;;;;;;71.22;22.63;;;;;;;12.52;44.73;96104.97;5087623;28;20014;-26
2023/12/09 00:34:02;;;;;;;59.13;18.00;;;;;;;12.65;44.54;96102.16;5087249;28;20457;-26
2023/12/09 00:36:27;;;;;;;40.00;13.52;;;;;;;12.55;44.46;96104.09;5084519;28;20023;-26
2023/12/09 00:38:53;;;;;;;28.50;9.48;;;;;;;12.62;44.48;96107.72;5081264;28;20026;-26
2023/12/09 00:41:18;;;;;;;24.27;8.75;;;;;;;12.48;44.54;96104.38;5078688;28;20025;-26
2023/12/09 00:43:44;;;;;;;18.80;7.63;;;;;;;12.53;44.17;96097.56;5084329;28;20024;-26
2023/12/09 00:46:09;;;;;;;14.52;6.03;;;;;;;12.61;44.60;96096.09;5082457;28;20023;-26
2023/12/09 00:48:34;;;;;;;8.18;4.28;;;;;;;12.43;45.13;96104.94;5078605;28;20028;-26
2023/12/09 00:51:00;;;;;;;7.57;3.30;;;;;;;12.48;44.89;96098.94;5089735;28;20401;-26
2023/12/09 00:53:25;;;;;;;5.10;2.70;;;;;;;12.28;44.83;96105.91;5083218;28;20478;-26
2023/12/09 00:55:51;;;;;;;3.28;1.92;;;;;;;12.58;44.64;96097.00;5085570;28;20020;-26
2023/12/09 00:58:16;;;;;;;4.35;2.00;;;;;;;12.51;44.77;96103.47;5081490;28;20021;-26
2023/12/09 01:00:42;;;;;;;3.17;1.83;;;;;;;12.43;45.05;96107.66;5083355;28;20116;-26
2023/12/09 01:03:07;;;;;;;2.63;1.60;;;;;;;12.49;44.93;96103.13;5084093;28;20020;-26
2023/12/09 01:05:32;;;;;;;2.50;1.50;;;;;;;12.39;44.96;96096.13;5082748;28;20021;-27
2023/12/09 01:07:58;;;;;;;2.38;1.70;;;;;;;12.61;44.65;96100.78;5084680;28;20023;-26
2023/12/09 01:10:23;;;;;;;3.40;1.40;;;;;;;12.40;44.70;96100.38;5081672;28;20038;-26
2023/12/09 01:12:49;;;;;;;3.00;1.45;;;;;;;12.56;44.36;96097.44;5083210;28;20048;-26
2023/12/09 01:15:15;;;;;;;3.15;1.48;;;;;;;12.50;44.54;96093.00;5078249;28;20531;-26
2023/12/09 01:17:41;;;;;;;3.10;1.60;;;;;;;12.37;44.53;96103.22;5086651;28;20039;-26
2023/12/09 01:20:07;;;;;;;3.83;1.33;;;;;;;12.36;44.93;96104.47;5084083;28;20117;-26
2023/12/09 01:22:33;;;;;;;3.25;1.58;;;;;;;12.61;44.60;96108.97;5082697;28;20497;-26
2023/12/09 01:24:58;;;;;;;2.47;1.30;;;;;;;12.38;45.18;96112.91;5089950;28;20031;-26
2023/12/09 01:27:23;;;;;;;1.70;1.13;;;;;;;12.48;44.38;96115.25;5077875;28;20016;-26
2023/12/09 01:29:49;;;;;;;2.70;1.30;;;;;;;12.54;44.54;96110.72;5093598;28;20161;-26
2023/12/09 01:32:14;;;;;;;2.30;1.20;;;;;;;12.68;43.93;96125.75;5084866;28;20028;-26
2023/12/09 01:34:40;;;;;;;2.63;1.50;;;;;;;12.38;44.34;96126.50;5056692;28;20055;-26
2023/12/09 01:37:06;;;;;;;2.45;1.65;;;;;;;12.53;43.95;96128.25;5082750;28;20024;-26
2023/12/09 01:39:31;;;;;;;3.03;1.20;;;;;;;12.64;44.34;96137.97;5084657;28;20040;-26
2023/12/09 01:41:57;;;;;;;2.25;1.17;;;;;;;12.52;44.03;96129.44;5085844;28;20027;-26
2023/12/09 01:44:22;;;;;;;2.63;1.60;;;;;;;12.45;44.70;96134.41;5084692;28;20048;-26
2023/12/09 01:46:48;;;;;;;1.80;1.02;;;;;;;12.54;44.64;96132.50;5086358;28;20377;-26
2023/12/09 01:49:15;;;;;;;2.50;1.35;;;;;;;12.29;45.10;96142.78;5086598;28;20127;-26
2023/12/09 01:51:42;;;;;;;1.75;1.25;;;;;;;12.44;44.55;96139.09;5083958;28;20028;-26
2023/12/09 01:54:08;;;;;;;1.92;1.30;;;;;;;12.61;44.54;96150.50;5088381;28;20047;-26
2023/12/09 01:56:34;;;;;;;2.65;1.50;;;;;;;12.43;44.87;96151.16;5082685;28;20016;-26
2023/12/09 01:58:59;;;;;;;2.50;1.50;;;;;;;12.35;45.51;96144.47;5090178;28;20394;-26
2023/12/09 02:01:25;;;;;;;2.90;1.77;;;;;;;12.67;44.67;96140.56;5088397;28;20023;-26
2023/12/09 02:03:52;;;;;;;3.08;1.85;;;;;;;12.27;45.29;96151.38;5083503;28;20491;-26
2023/12/09 02:06:17;;;;;;;1.98;1.30;;;;;;;12.46;44.87;96141.38;5081919;28;20031;-26
2023/12/09 02:08:43;;;;;;;2.58;1.67;;;;;;;12.43;44.90;96142.25;5082152;28;20024;-26
2023/12/09 02:11:32;;;;;;;2.30;1.52;;;;;;;12.53;44.85;96147.28;5084765;28;20104;-26
2023/12/09 02:14:07;;;;;;;2.92;1.60;;;;;;;12.47;44.85;96137.44;5083223;28;20012;-26
2023/12/09 02:16:46;;;;;;;2.53;1.42;;;;;;;12.62;44.80;96140.38;5080302;28;20027;-26
2023/12/09 02:19:13;;;;;;;2.10;1.40;;;;;;;12.47;44.96;96135.50;5075461;28;20024;-26
2023/12/09 02:22:01;;;;;;;1.95;1.58;;;;;;;12.45;44.62;96143.31;5081567;28;20021;-26
2023/12/09 02:24:27;;;;;;;3.25;1.95;;;;;;;12.33;45.11;96138.72;5057096;28;20029;-26
2023/12/09 02:26:57;;;;;;;2.85;1.70;;;;;;;12.37;44.44;96136.63;5081383;28;20105;-26
2023/12/09 02:29:25;;;;;;;2.50;1.58;;;;;;;12.47;44.54;96134.72;5081633;28;20050;-26
2023/12/09 02:31:55;;;;;;;2.53;1.63;;;;;;;12.27;44.93;96128.84;5082167;28;20028;-26
2023/12/09 02:34:21;;;;;;;1.92;1.40;;;;;;;12.37;44.79;96122.25;5081457;28;20031;-26
2023/12/09 02:36:47;;;;;;;2.97;1.42;;;;;;;12.54;44.59;96121.59;5081518;28;20029;-26
2023/12/09 02:39:17;;;;;;;2.20;1.35;;;;;;;12.41;44.24;96120.94;5081172;28;20030;-26
2023/12/09 02:41:44;;;;;;;1.95;1.50;;;;;;;12.37;44.57;96108.66;5084292;28;20052;-26
2023/12/09 02:44:11;;;;;;;2.15;1.30;;;;;;;12.35;44.14;96125.44;5085403;28;20036;-26
2023/12/09 02:46:37;;;;;;;2.58;1.58;;;;;;;12.43;43.98;96110.38;5081560;28;20420;-26
2023/12/09 02:49:03;;;;;;;2.35;1.42;;;;;;;12.30;44.34;96106.22;5078747;28;20051;-26
2023/12/09 02:51:28;;;;;;;2.35;1.42;;;;;;;12.51;43.67;96108.91;5076962;28;20020;-26
2023/12/09 02:53:54;;;;;;;3.38;1.60;;;;;;;12.41;43.90;96104.63;5088806;28;20021;-26
2023/12/09 02:56:20;;;;;;;3.45;1.70;;;;;;;12.35;43.50;96103.69;5080963;28;20024;-26
2023/12/09 02:58:46;;;;;;;3.75;1.40;;;;;;;12.42;43.72;96105.38;5081949;28;20102;-26
2023/12/09 03:01:11;;;;;;;3.63;1.90;;;;;;;12.59;43.02;96107.44;5080437;28;20027;-26
2023/12/09 03:06:58;;;;;;;2.17;1.50;;;;;;;12.50;43.37;96109.34;5080610;28;20078;-26
2023/12/09 03:09:23;;;;;;;2.83;1.42;;;;;;;12.44;43.17;96113.84;5081141;28;20056;-26
2023/12/09 03:11:48;;;;;;;3.88;2.10;;;;;;;12.29;43.45;96116.34;5081375;28;20024;-26
2023/12/09 03:14:14;;;;;;;2.10;1.35;;;;;;;12.46;43.60;96112.22;5083539;28;20102;-26
2023/12/09 03:16:39;;;;;;;3.15;1.40;;;;;;;12.42;43.75;96114.28;5083775;28;20027;-26
2023/12/09 03:19:05;;;;;;;3.05;1.35;;;;;;;12.36;43.69;96112.63;5082654;28;20034;-26
2023/12/09 03:21:31;;;;;;;2.08;1.33;;;;;;;12.27;43.84;96113.31;5077677;28;20424;-26
2023/12/09 03:23:56;;;;;;;3.75;2.05;;;;;;;12.41;43.63;96118.22;5076617;28;20032;-26
2023/12/09 03:26:24;;;;;;;2.88;1.90;;;;;;;12.44;43.90;96111.91;5082402;28;20020;-27
2023/12/09 03:28:49;;;;;;;4.40;1.70;;;;;;;12.35;43.83;96111.84;5083828;28;20115;-26
2023/12/09 03:31:16;;;;;;;3.30;1.70;;;;;;;12.30;43.68;96112.41;5082246;28;20095;-26
2023/12/09 03:33:42;;;;;;;2.17;1.52;;;;;;;12.36;43.50;96118.81;5079750;28;20031;-26
2023/12/09 03:36:08;;;;;;;3.53;1.48;;;;;;;12.32;44.04;96112.75;5080360;28;20028;-26
2023/12/09 03:38:34;;;;;;;2.50;1.80;;;;;;;12.38;44.07;96119.09;5082758;28;20025;-26
2023/12/09 03:41:02;;;;;;;2.30;1.50;;;;;;;12.30;43.50;96122.53;5083979;28;20020;-26
2023/12/09 03:43:27;;;;;;;2.63;1.77;;;;;;;12.34;43.68;96118.50;5075191;28;20060;-26
2023/12/09 03:45:53;;;;;;;2.22;1.67;;;;;;;12.27;43.32;96118.75;5087454;28;20056;-26
2023/12/09 03:48:18;;;;;;;2.40;1.50;;;;;;;12.28;43.54;96125.69;5073522;28;20028;-26
2023/12/09 03:50:44;;;;;;;2.38;1.33;;;;;;;12.36;43.61;96142.53;5081487;28;20037;-26
2023/12/09 03:53:09;;;;;;;2.50;1.45;;;;;;;12.30;43.00;96133.41;5079055;28;20181;-26
2023/12/09 03:55:35;;;;;;;2.75;2.08;;;;;;;12.33;43.51;96138.72;5080105;28;20359;-26
2023/12/09 03:58:00;;;;;;;2.28;1.30;;;;;;;12.30;43.49;96153.22;5079805;28;20043;-26
2023/12/09 04:00:26;;;;;;;2.22;1.13;;;;;;;12.38;43.71;96146.28;5080395;28;20016;-26
2023/12/09 04:02:51;;;;;;;1.75;1.30;;;;;;;12.46;42.98;96157.69;5080477;28;20035;-26
2023/12/09 04:05:17;;;;;;;2.17;1.45;;;;;;;12.37;42.99;96155.66;5080110;28;20430;-26
2023/12/09 04:07:42;;;;;;;1.88;1.35;;;;;;;12.38;42.90;96162.63;5080375;28;20086;-26
2023/12/09 04:10:09;;;;;;;2.25;1.30;;;;;;;12.19;43.70;96167.19;5075689;28;20413;-27
2023/12/09 04:12:35;;;;;;;2.78;1.58;;;;;;;12.41;42.94;96167.16;5083308;28;20077;-26
2023/12/09 04:15:01;;;;;;;4.10;2.08;;;;;;;12.33;43.07;96174.06;5081417;28;20027;-26
2023/12/09 04:17:26;;;;;;;2.08;1.30;;;;;;;12.28;43.31;96177.34;5080012;28;20093;-26
2023/12/09 04:19:52;;;;;;;2.25;1.58;;;;;;;12.37;43.24;96177.41;5080395;28;20462;-26
2023/12/09 04:22:18;;;;;;;3.10;1.52;;;;;;;12.55;42.68;96188.41;5080345;28;20031;-26
2023/12/09 04:24:43;;;;;;;2.00;1.35;;;;;;;12.36;42.86;96186.78;5085445;28;20078;-26
2023/12/09 04:27:08;;;;;;;2.42;1.20;;;;;;;12.48;42.64;96187.94;5082433;28;20016;-26
2023/12/09 04:29:34;;;;;;;2.70;1.40;;;;;;;12.40;42.74;96203.72;5080033;28;20016;-26
2023/12/09 04:31:59;;;;;;;1.73;1.17;;;;;;;12.42;42.80;96212.19;5079710;28;20056;-26
2023/12/09 04:34:25;;;;;;;2.50;1.33;;;;;;;12.53;42.51;96211.81;5079905;28;20024;-26
2023/12/09 04:36:50;;;;;;;1.85;1.13;;;;;;;12.50;42.49;96221.63;5077610;28;20027;-26
2023/12/09 04:39:16;;;;;;;3.25;1.23;;;;;;;12.52;42.86;96221.94;5075360;28;20032;-26
2023/12/09 04:41:42;;;;;;;2.40;1.02;;;;;;;12.44;43.23;96231.56;5080330;28;20021;-26
2023/12/09 04:44:08;;;;;;;1.92;1.27;;;;;;;12.34;43.03;96232.69;5078936;28;20026;-26
2023/12/09 04:46:34;;;;;;;2.58;1.23;;;;;;;12.48;42.68;96234.16;5082051;28;20021;-26
2023/12/09 04:49:00;;;;;;;1.90;1.13;;;;;;;12.39;42.92;96240.28;5085614;28;20122;-26
2023/12/09 04:51:26;;;;;;;2.30;1.48;;;;;;;12.35;43.41;96247.06;5079573;28;20419;-26
2023/12/09 04:53:51;;;;;;;2.72;1.15;;;;;;;12.54;43.06;96252.19;5075609;28;20060;-26
2023/12/09 04:56:18;;;;;;;4.10;1.90;;;;;;;12.37;43.18;96258.22;5077504;28;20102;-26
2023/12/09 04:58:43;;;;;;;10.20;5.00;;;;;;;12.55;43.12;96253.69;5080544;28;20060;-26
2023/12/09 05:01:08;;;;;;;18.88;8.80;;;;;;;12.51;43.59;96252.28;5086800;28;20048;-26
2023/12/09 05:03:34;;;;;;;23.73;10.13;;;;;;;12.35;43.89;96261.41;5079982;28;20012;-26
2023/12/09 05:06:00;;;;;;;34.88;14.00;;;;;;;12.43;43.90;96262.69;5079660;28;20078;-26
2023/12/09 05:08:25;;;;;;;27.02;12.07;;;;;;;12.54;43.80;96273.94;5061900;28;20412;-26
2023/12/09 05:10:51;;;;;;;16.63;8.50;;;;;;;12.52;43.65;96270.13;5082143;28;20028;-26
2023/12/09 05:13:17;;;;;;;13.23;6.53;;;;;;;12.44;43.63;96275.06;5082849;28;20024;-26
2023/12/09 05:15:42;;;;;;;10.43;4.80;;;;;;;12.40;43.73;96266.28;5083046;28;20020;-26
2023/12/09 05:18:07;;;;;;;9.50;4.03;;;;;;;12.45;43.51;96273.13;5066556;28;20032;-26
2023/12/09 05:20:33;;;;;;;8.38;3.65;;;;;;;12.56;43.51;96282.41;5086587;28;20030;-26
2023/12/09 05:22:58;;;;;;;6.68;2.70;;;;;;;12.46;43.39;96285.53;5085484;28;20110;-26
2023/12/09 05:25:24;;;;;;;4.07;2.33;;;;;;;12.64;43.37;96285.63;5078652;28;20035;-26
2023/12/09 05:27:49;;;;;;;4.32;2.10;;;;;;;12.48;44.08;96291.28;5080552;28;20025;-26
2023/12/09 05:30:15;;;;;;;3.78;2.10;;;;;;;12.63;43.56;96291.53;5090026;28;20510;-26
2023/12/09 05:32:40;;;;;;;5.57;2.70;;;;;;;12.59;43.39;96291.66;5082637;28;20390;-26
2023/12/09 05:35:06;;;;;;;4.18;1.60;;;;;;;12.56;43.60;96289.81;5082728;28;20021;-26
2023/12/09 05:37:31;;;;;;;4.53;1.40;;;;;;;12.56;43.38;96289.81;5082898;28;20015;-26
2023/12/09 05:39:57;;;;;;;3.80;1.65;;;;;;;12.41;44.01;96283.34;5082796;28;20020;-26
2023/12/09 05:42:22;;;;;;;2.92;1.88;;;;;;;12.61;43.59;96293.94;5082655;28;20047;-26
2023/12/09 05:44:48;;;;;;;3.80;1.50;;;;;;;12.62;43.26;96281.84;5083145;28;20024;-26
2023/12/09 05:47:13;;;;;;;3.40;1.40;;;;;;;12.33;43.71;96284.81;5082654;28;20091;-26
2023/12/09 05:49:38;;;;;;;2.28;1.25;;;;;;;12.35;44.12;96274.25;5081813;28;20058;-26
2023/12/09 05:52:04;;;;;;;2.03;1.27;;;;;;;12.47;43.90;96279.66;5082487;28;20101;-26
2023/12/09 05:54:31;;;;;;;2.58;1.20;;;;;;;12.65;43.39;96278.25;5082517;28;20047;-26
2023/12/09 05:56:57;;;;;;;1.67;1.20;;;;;;;12.52;43.76;96267.41;5083300;28;20024;-26
2023/12/09 05:59:23;;;;;;;3.00;1.30;;;;;;;12.55;43.54;96264.59;5081175;28;20048;-26
2023/12/09 06:01:48;;;;;;;2.00;1.23;;;;;;;12.55;43.85;96252.94;5083452;28;20554;-26
2023/12/09 06:04:13;;;;;;;2.28;1.27;;;;;;;12.35;44.33;96261.41;5078942;28;20101;-26
2023/12/09 06:06:39;;;;;;;1.92;0.98;;;;;;;12.58;43.63;96266.41;5078051;28;20122;-26
2023/12/09 06:09:04;;;;;;;1.63;1.00;;;;;;;12.52;43.65;96273.63;5082131;28;20039;-26
2023/12/09 06:11:30;;;;;;;1.95;1.38;;;;;;;12.54;43.62;96279.38;5080118;28;20060;-26
2023/12/09 06:13:56;;;;;;;2.13;1.00;;;;;;;12.51;43.57;96274.81;5076965;28;20102;-26
2023/12/09 06:16:22;;;;;;;1.95;1.20;;;;;;;12.51;43.86;96274.81;5082185;28;20431;-26
2023/12/09 06:18:48;;;;;;;1.70;1.10;;;;;;;12.36;43.99;96273.81;5082274;28;20036;-26
2023/12/09 06:21:25;;;;;;;1.70;1.00;;;;;;;12.61;43.50;96272.19;5081368;28;20069;-26
2023/12/09 06:23:51;;;;;;;1.45;1.13;;;;;;;12.35;44.50;96276.97;5081842;28;20024;-26
2023/12/09 06:26:17;;;;;;;2.33;1.27;;;;;;;12.49;43.59;96269.06;5081219;28;20500;-26
2023/12/09 06:28:42;;;;;;;1.70;1.10;;;;;;;12.47;43.50;96273.44;5063611;28;20033;-26
2023/12/09 06:31:10;;;;;;;1.63;1.15;;;;;;;12.54;43.19;96265.03;5081792;28;20032;-27
2023/12/09 06:33:36;;;;;;;2.00;1.45;;;;;;;12.59;42.89;96270.66;5077854;28;20024;-26
2023/12/09 06:36:01;;;;;;;2.10;1.17;;;;;;;12.51;43.26;96274.81;5084712;28;20035;-26
2023/12/09 06:38:27;;;;;;;2.67;1.48;;;;;;;12.43;43.55;96262.69;5075799;28;20025;-26
2023/12/09 06:40:52;;;;;;;3.47;1.20;;;;;;;12.56;43.50;96260.66;5087605;28;20020;-26
2023/12/09 06:43:18;;;;;;;1.52;1.13;;;;;;;12.41;43.52;96277.91;5081876;28;20024;-27
2023/12/09 06:45:43;;;;;;;2.25;1.15;;;;;;;12.49;43.16;96277.22;5088805;28;20016;-26
2023/12/09 06:48:08;;;;;;;1.73;1.08;;;;;;;12.50;43.04;96275.25;5087436;28;20023;-26
2023/12/09 06:50:34;;;;;;;1.85;1.17;;;;;;;12.36;43.17;96273.81;5076208;28;20067;-26
2023/12/09 06:53:00;;;;;;;1.98;1.33;;;;;;;12.38;43.50;96282.28;5080822;28;20031;-26
2023/12/09 06:55:26;;;;;;;2.53;1.40;;;;;;;12.44;42.87;96288.69;5081744;28;20095;-26
2023/12/09 06:57:52;;;;;;;2.67;1.40;;;;;;;12.41;43.10;96289.56;5081004;28;20073;-26
2023/12/09 07:00:17;;;;;;;2.08;1.40;;;;;;;12.43;43.43;96295.31;5078902;28;20028;-26
2023/12/09 07:02:43;;;;;;;2.65;1.42;;;;;;;12.27;43.83;96300.16;5076646;28;20028;-27
2023/12/09 07:05:14;;;;;;;2.05;1.30;;;;;;;12.45;43.59;96303.78;5081336;28;20024;-26
2023/12/09 07:07:40;;;;;;;1.77;1.20;;;;;;;12.30;43.28;96302.00;5080646;28;20075;-26
2023/12/09 07:10:07;;;;;;;2.80;1.20;;;;;;;12.34;43.50;96308.84;5081352;28;20016;-26
2023/12/09 07:12:32;;;;;;;3.33;1.10;;;;;;;12.52;42.94;96308.97;5081056;28;20026;-26
2023/12/09 07:15:01;;;;;;;2.38;1.10;;;;;;;12.38;42.96;96314.91;5080898;28;20012;-26
2023/12/09 07:17:26;;;;;;;1.90;1.30;;;;;;;12.34;43.24;96311.56;5081225;28;20016;-26
2023/12/09 07:19:56;;;;;;;2.40;1.35;;;;;;;12.37;43.33;96313.38;5073785;28;20020;-26
2023/12/09 07:22:22;;;;;;;2.03;1.30;;;;;;;12.38;43.13;96323.06;5063377;28;20123;-26
2023/12/09 07:24:48;;;;;;;3.33;1.58;;;;;;;12.39;43.58;96321.88;5087132;28;20102;-27
2023/12/09 07:27:13;;;;;;;4.03;2.10;;;;;;;12.41;43.28;96318.72;5081621;28;20485;-26
2023/12/09 07:29:39;;;;;;;2.65;1.70;;;;;;;12.28;43.82;96316.03;5084924;28;20016;-26
2023/12/09 07:32:05;;;;;;;2.00;1.30;;;;;;;12.37;44.15;96318.81;5075539;28;20021;-26
2023/12/09 07:34:30;;;;;;;2.97;1.60;;;;;;;12.33;44.25;96323.63;5080539;28;20024;-26
2023/12/09 07:36:56;;;;;;;3.28;1.33;;;;;;;12.43;43.74;96322.50;5080792;28;20028;-26
2023/12/09 07:39:22;;;;;;;7.35;3.15;;;;;;;12.39;43.93;96323.81;5080954;28;20149;-26
2023/12/09 07:41:50;;;;;;;2.15;1.27;;;;;;;12.34;44.12;96325.16;5080629;28;20470;-26
2023/12/09 07:44:20;;;;;;;2.75;1.67;;;;;;;12.27;44.19;96321.91;5080265;28;20028;-26
2023/12/09 07:46:46;;;;;;;1.90;1.30;;;;;;;12.21;44.19;96316.28;5082870;28;20019;-26
2023/12/09 07:49:12;;;;;;;1.63;1.40;;;;;;;12.46;43.99;96320.88;5084858;28;20047;-26
2023/12/09 07:51:37;;;;;;;2.22;1.25;;;;;;;12.36;44.29;96324.72;5056076;28;20025;-26
2023/12/09 07:54:03;;;;;;;4.07;1.30;;;;;;;12.38;44.05;96320.34;5087289;28;20138;-26
2023/12/09 07:56:28;;;;;;;1.65;1.27;;;;;;;12.42;44.36;96321.00;5080462;28;20023;-26
2023/12/09 07:58:54;;;;;;;3.25;1.30;;;;;;;12.54;44.00;96322.91;5082398;28;20024;-26
2023/12/09 08:01:19;;;;;;;2.33;1.20;;;;;;;12.32;44.78;96326.78;5077939;28;20020;-26
2023/12/09 08:03:45;;;;;;;1.80;1.40;;;;;;;12.45;44.40;96327.50;5087491;28;20031;-26
2023/12/09 08:06:11;;;;;;;3.35;2.08;;;;;;;12.43;45.19;96329.91;5072894;28;20500;-26
2023/12/09 08:08:37;;;;;;;4.13;2.50;;;;;;;12.41;44.99;96326.88;5080299;28;20149;-26
2023/12/09 08:11:03;;;;;;;4.47;2.17;;;;;;;12.53;44.80;96321.38;5075114;28;20082;-26
2023/12/09 08:13:29;;;;;;;6.80;2.05;;;;;;;12.43;45.44;96322.50;5083308;28;20089;-26
2023/12/09 08:15:54;;;;;;;5.35;2.50;;;;;;;12.42;45.58;96321.00;5082805;28;20471;-26
2023/12/09 08:18:20;;;;;;;5.00;1.95;;;;;;;12.57;45.29;96329.44;5080254;28;20024;-26
2023/12/09 08:20:45;;;;;;;2.90;1.73;;;;;;;12.48;45.58;96332.84;5072841;28;20012;-26
2023/12/09 08:23:11;;;;;;;2.60;1.50;;;;;;;12.49;45.55;96336.28;5080149;28;20443;-26
2023/12/09 08:25:37;;;;;;;2.50;1.45;;;;;;;12.35;46.00;96331.38;5076991;28;20067;-26
2023/12/09 08:28:03;;;;;;;2.78;1.75;;;;;;;12.62;45.36;96334.28;5083093;28;20047;-26
2023/12/09 08:30:28;;;;;;;1.70;1.33;;;;;;;12.38;45.99;96331.22;5087786;28;20406;-26
2023/12/09 08:32:53;;;;;;;1.70;1.35;;;;;;;12.44;46.11;96345.78;5079820;28;20074;-26
2023/12/09 08:35:19;;;;;;;2.42;1.33;;;;;;;12.55;45.75;96343.47;5087225;28;20046;-26
2023/12/09 08:37:44;;;;;;;2.75;1.30;;;;;;;12.53;45.62;96343.16;5072394;28;20025;-26
2023/12/09 08:40:12;;;;;;;1.75;1.13;;;;;;;12.68;45.75;96348.09;5080239;28;20035;-26
2023/12/09 08:42:42;;;;;;;1.35;0.90;;;;;;;12.77;45.46;96346.19;5081835;28;20025;-26
2023/12/09 08:45:10;;;;;;;2.63;1.25;;;;;;;12.68;45.81;96354.31;5086103;28;20020;-26
2023/12/09 08:47:36;;;;;;;4.30;1.25;;;;;;;12.58;46.29;96355.44;5085744;28;20558;-26
2023/12/09 08:50:04;;;;;;;1.85;1.10;;;;;;;12.88;45.23;96354.75;5086449;28;20052;-26
2023/12/09 08:52:29;;;;;;;1.85;1.08;;;;;;;12.92;45.32;96358.13;5085980;28;20051;-26
2023/12/09 08:54:55;;;;;;;2.15;1.20;;;;;;;13.19;44.59;96371.19;5083374;28;20055;-26
2023/12/09 08:57:20;;;;;;;1.23;0.93;;;;;;;17.50;36.14;96378.88;5082763;28;20028;-26
2023/12/09 08:59:46;;;;;;;2.88;1.40;;;;;;;20.62;30.01;96380.84;5078168;28;20021;-26
2023/12/09 09:02:11;;;;;;;1.45;0.95;;;;;;;22.74;26.67;96383.78;5068919;28;20078;-26
2023/12/09 09:04:36;;;;;;;1.17;0.80;;;;;;;24.04;24.92;96388.06;5086159;28;20035;-26
2023/12/09 09:07:02;;;;;;;1.48;1.10;;;;;;;24.24;24.67;96384.88;5090607;28;20496;-26
2023/12/09 09:09:27;;;;;;;3.15;1.15;;;;;;;23.85;24.51;96383.19;5083129;28;20023;-26
2023/12/09 09:11:53;;;;;;;2.17;1.10;;;;;;;24.87;23.58;96389.22;5090883;28;20027;-27
2023/12/09 09:14:18;;;;;;;10.90;1.20;;;;;;;25.35;23.15;96388.38;5065167;28;20009;-26
2023/12/09 09:16:44;;;;;;;1.50;1.02;;;;;;;24.91;23.16;96393.22;5062265;28;20063;-26
2023/12/09 09:19:09;;;;;;;1.95;0.88;;;;;;;25.69;22.89;96399.81;5082783;28;20028;-26
2023/12/09 09:21:35;;;;;;;2.38;1.30;;;;;;;26.91;20.86;96401.72;5083087;28;20023;-27
2023/12/09 09:24:00;;;;;;;1.40;1.05;;;;;;;27.16;20.67;96400.22;5082529;28;20040;-27
2023/12/09 09:26:25;;;;;;;2.28;1.20;;;;;;;26.55;21.54;96396.59;5078360;28;20020;-28
2023/12/09 09:28:51;;;;;;;2.10;1.38;;;;;;;27.50;20.53;96405.81;5080641;28;20033;-27
2023/12/09 09:31:16;;;;;;;8.48;5.57;;;;;;;27.51;20.09;96410.09;5083040;28;20361;-28
2023/12/09 09:33:42;;;;;;;18.05;10.93;;;;;;;26.75;20.80;96404.31;5082588;28;20093;-28
2023/12/09 09:36:08;;;;;;;13.57;8.40;;;;;;;26.48;20.88;96405.56;5082749;28;20012;-27
2023/12/09 09:38:34;;;;;;;15.30;9.32;;;;;;;20.78;28.69;96402.94;5077544;28;20028;-28
2023/12/09 09:41:04;;;;;;;13.80;8.75;;;;;;;17.94;33.66;96400.03;5087384;28;20036;-27
2023/12/09 09:43:37;;;;;;;14.52;8.68;;;;;;;16.88;36.36;96398.16;5076517;28;20047;-27
2023/12/09 09:46:07;;;;;;;13.00;8.13;;;;;;;16.31;37.96;96402.94;5080912;28;20025;-27
2023/12/09 09:48:39;;;;;;;10.82;6.28;;;;;;;15.81;38.88;96405.28;5083214;28;20158;-27
2023/12/09 09:51:07;;;;;;;10.18;6.40;;;;;;;15.62;39.29;96412.00;5085661;28;20119;-26
2023/12/09 09:53:37;;;;;;;8.25;4.93;;;;;;;15.16;40.49;96392.94;5077087;28;20025;-27
2023/12/09 09:56:05;;;;;;;8.45;5.30;;;;;;;15.07;41.04;96398.41;5084780;28;20049;-26
2023/12/09 09:58:32;;;;;;;9.35;4.93;;;;;;;15.00;41.19;96395.97;5078087;28;20033;-27
2023/12/09 10:00:59;;;;;;;8.50;4.80;;;;;;;14.77;41.99;96394.63;5092968;28;20024;-26
2023/12/09 10:03:24;;;;;;;10.18;5.30;;;;;;;14.43;42.70;96386.69;5079481;28;20060;-26
2023/12/09 10:05:51;;;;;;;9.35;4.88;;;;;;;14.42;42.96;96385.94;5083324;28;20103;-27
2023/12/09 10:08:16;;;;;;;12.43;6.22;;;;;;;14.28;43.24;96384.50;5081542;28;20020;-26
2023/12/09 10:10:42;;;;;;;11.88;6.35;;;;;;;14.43;43.10;96390.19;5089432;28;20024;-26
2023/12/09 10:13:08;;;;;;;13.50;5.28;;;;;;;14.28;43.52;96383.75;5081918;28;20028;-26
2023/12/09 10:15:34;;;;;;;9.27;4.93;;;;;;;14.26;43.52;96372.53;5080473;28;20049;-26
2023/12/09 10:18:03;;;;;;;9.20;4.93;;;;;;;14.11;43.76;96385.22;5077037;28;20488;-27
2023/12/09 10:20:29;;;;;;;10.48;4.30;;;;;;;14.11;43.99;96385.22;5081925;28;20020;-26
2023/12/09 10:22:55;;;;;;;12.05;4.93;;;;;;;13.90;44.30;96378.63;5081285;28;20021;-26
2023/12/09 10:25:24;;;;;;;7.80;4.55;;;;;;;14.07;44.22;96370.97;5089056;28;20017;-27
2023/12/09 10:27:50;;;;;;;8.90;4.35;;;;;;;13.89;44.63;96377.13;5081463;28;20063;-26
2023/12/09 10:30:20;;;;;;;9.85;4.50;;;;;;;13.94;44.69;96369.13;5056581;28;20020;-26
2023/12/09 10:32:47;;;;;;;8.73;4.10;;;;;;;13.90;44.64;96376.69;5081674;28;20052;-26
2023/12/09 10:35:13;;;;;;;6.78;3.15;;;;;;;13.78;45.04;96372.09;5074401;28;20025;-26
2023/12/09 10:37:39;;;;;;;6.22;3.30;;;;;;;13.86;44.65;96367.09;5063965;28;20024;-26
2023/12/09 10:40:06;;;;;;;6.03;3.20;;;;;;;13.75;44.87;96367.53;5081417;28;20032;-26
2023/12/09 10:42:32;;;;;;;5.45;3.05;;;;;;;13.74;44.96;96366.00;5081357;28;20056;-26
2023/12/09 10:44:57;;;;;;;4.57;2.20;;;;;;;13.56;45.86;96371.38;5079104;28;20051;-26
2023/12/09 10:47:25;;;;;;;3.65;2.05;;;;;;;13.76;45.15;96366.31;5077037;28;20100;-26
2023/12/09 10:49:51;;;;;;;5.93;2.55;;;;;;;13.81;45.38;96365.75;5081716;28;20098;-26
2023/12/09 10:52:17;;;;;;;3.13;2.00;;;;;;;13.71;45.48;96361.47;5080805;28;20461;-27
2023/12/09 10:54:42;;;;;;;4.80;2.00;;;;;;;13.72;45.27;96370.41;5063216;28;20089;-26
2023/12/09 10:57:08;;;;;;;4.80;2.20;;;;;;;13.57;45.69;96370.94;5081040;28;20016;-26
2023/12/09 10:59:34;;;;;;;6.95;3.03;;;;;;;13.61;45.88;96379.72;5081373;28;20047;-28
2023/12/09 11:02:01;;;;;;;4.32;2.50;;;;;;;13.70;45.66;96383.72;5083773;28;20031;-27
2023/12/09 11:04:26;;;;;;;5.70;3.03;;;;;;;13.73;45.82;96388.25;5084743;28;20028;-26
2023/12/09 11:06:58;;;;;;;3.63;2.75;;;;;;;13.66;46.14;96376.44;5075690;28;20020;-26
2023/12/09 11:09:24;;;;;;;4.32;2.70;;;;;;;13.67;45.97;96379.91;5086306;28;20118;-26
2023/12/09 11:11:50;;;;;;;6.45;3.08;;;;;;;13.62;47.31;96378.53;5073521;28;20504;-26
2023/12/09 11:14:16;;;;;;;6.35;3.17;;;;;;;13.67;46.97;96374.47;5080595;28;20035;-26
2023/12/09 11:16:43;;;;;;;6.10;3.47;;;;;;;13.69;46.97;96371.28;5080537;28;20016;-26
2023/12/09 11:19:16;;;;;;;7.28;3.83;;;;;;;13.70;47.00;96381.75;5082769;28;20196;-26
2023/12/09 11:21:45;;;;;;;8.13;4.03;;;;;;;13.58;47.26;96383.38;5084326;28;20035;-26
2023/12/09 11:24:11;;;;;;;7.43;4.15;;;;;;;13.66;47.36;96381.88;5082435;28;20118;-26
2023/12/09 11:26:40;;;;;;;6.65;4.05;;;;;;;13.49;47.81;96377.84;5080609;28;20119;-26
2023/12/09 11:29:09;;;;;;;7.53;4.20;;;;;;;13.58;47.38;96380.63;5080552;28;20020;-26